Time,TemperatureF,DewpointF,PressureIn,WindDirection,WindDirectionDegrees,WindSpeedMPH,WindSpeedGustMPH,Humidity,HourlyPrecipIn,Conditions,Clouds,dailyrainin,SoftwareType,DateUTC
2013-03-27 00:02:00,32.0,26.0,30.37,West,278,1.0,3.0,79,0.00,,,0.02,,2013-03-27 05:02:00,
2013-03-27 00:12:00,32.0,26.0,30.37,West,278,1.0,3.0,79,0.00,,,0.02,,2013-03-27 05:12:00,
2013-03-27 00:23:00,31.0,26.0,30.37,West,278,0.0,2.0,82,0.00,,,0.02,,2013-03-27 05:23:00,
2013-03-27 00:33:00,31.0,26.0,30.37,West,278,0.0,1.0,81,0.00,,,0.02,,2013-03-27 05:33:00,
2013-03-27 00:42:00,31.0,26.0,30.37,West,278,0.0,1.0,81,0.00,,,0.02,,2013-03-27 05:42:00,
2013-03-27 00:52:00,31.0,26.0,30.37,West,278,1.0,4.0,81,0.00,,,0.02,,2013-03-27 05:52:00,
2013-03-27 01:02:00,31.0,26.0,30.37,West,267,1.0,4.0,81,0.00,,,0.02,,2013-03-27 06:02:00,
2013-03-27 01:12:00,31.0,26.0,30.37,West,267,1.0,4.0,81,0.00,,,0.02,,2013-03-27 06:12:00,
2013-03-27 01:22:00,32.0,27.0,30.37,West,262,0.0,2.0,80,0.00,,,0.02,,2013-03-27 06:22:00,
2013-03-27 01:32:00,32.0,26.0,30.37,West,262,0.0,2.0,78,0.00,,,0.02,,2013-03-27 06:32:00,
2013-03-27 01:42:00,32.0,26.0,30.37,West,262,0.0,2.0,78,0.00,,,0.02,,2013-03-27 06:42:00,
2013-03-27 01:52:00,32.0,26.0,30.37,WNW,287,0.0,4.0,77,0.00,,,0.02,,2013-03-27 06:52:00,
2013-03-27 02:02:00,32.0,26.0,30.37,WNW,301,1.0,5.0,77,0.00,,,0.02,,2013-03-27 07:02:00,
2013-03-27 02:12:00,32.0,26.0,30.37,WNW,301,1.0,5.0,77,0.00,,,0.02,,2013-03-27 07:12:00,
2013-03-27 02:22:00,32.0,26.0,30.37,WNW,300,2.0,6.0,77,0.00,,,0.02,,2013-03-27 07:22:00,
2013-03-27 02:32:00,32.0,26.0,30.37,NW,311,1.0,6.0,77,0.00,,,0.02,,2013-03-27 07:32:00,
2013-03-27 02:42:00,32.0,26.0,30.37,NW,311,1.0,6.0,77,0.00,,,0.02,,2013-03-27 07:42:00,
2013-03-27 02:53:00,32.0,26.0,30.37,West,274,2.0,7.0,77,0.00,,,0.02,,2013-03-27 07:53:00,
2013-03-27 03:02:00,32.0,26.0,30.37,WNW,292,4.0,7.0,77,0.00,,,0.02,,2013-03-27 08:02:00,
2013-03-27 03:12:00,32.0,26.0,30.37,WNW,292,4.0,7.0,77,0.00,,,0.02,,2013-03-27 08:12:00,
2013-03-27 03:22:00,32.0,26.0,30.37,WNW,299,1.0,5.0,78,0.00,,,0.02,,2013-03-27 08:22:00,
2013-03-27 03:32:00,32.0,26.0,30.37,NW,314,1.0,5.0,78,0.00,,,0.02,,2013-03-27 08:32:00,
2013-03-27 03:43:00,32.0,26.0,30.37,NW,314,1.0,5.0,78,0.00,,,0.02,,2013-03-27 08:43:00,
2013-03-27 03:52:00,32.0,26.0,30.37,NNW,333,0.0,4.0,79,0.00,,,0.02,,2013-03-27 08:52:00,
2013-03-27 04:02:00,32.0,27.0,30.37,NW,326,0.0,4.0,80,0.00,,,0.02,,2013-03-27 09:02:00,
2013-03-27 04:12:00,32.0,27.0,30.37,NW,326,0.0,4.0,80,0.00,,,0.02,,2013-03-27 09:12:00,
2013-03-27 04:22:00,31.0,26.0,30.37,NW,311,0.0,5.0,80,0.00,,,0.02,,2013-03-27 09:22:00,
2013-03-27 04:32:00,31.0,25.0,30.37,WNW,291,0.0,5.0,79,0.00,,,0.02,,2013-03-27 09:32:00,
2013-03-27 04:42:00,31.0,25.0,30.37,WNW,291,0.0,5.0,79,0.00,,,0.02,,2013-03-27 09:42:00,
2013-03-27 04:52:00,31.0,25.0,30.37,WNW,292,2.0,5.0,78,0.00,,,0.02,,2013-03-27 09:52:00,
2013-03-27 05:02:00,32.0,26.0,30.37,WNW,289,1.0,5.0,79,0.00,,,0.02,,2013-03-27 10:02:00,
2013-03-27 05:12:00,32.0,26.0,30.37,WNW,289,1.0,5.0,79,0.00,,,0.02,,2013-03-27 10:12:00,
2013-03-27 05:23:00,31.0,25.0,30.37,WNW,297,1.0,4.0,79,0.00,,,0.02,,2013-03-27 10:23:00,
2013-03-27 05:32:00,31.0,26.0,30.37,WNW,287,0.0,3.0,80,0.00,,,0.02,,2013-03-27 10:32:00,
2013-03-27 05:42:00,31.0,26.0,30.37,WNW,287,0.0,3.0,80,0.00,,,0.02,,2013-03-27 10:42:00,
2013-03-27 05:52:00,31.0,26.0,30.37,WNW,287,0.0,1.0,81,0.00,,,0.02,,2013-03-27 10:52:00,
2013-03-27 06:02:00,31.0,25.0,30.37,WNW,292,1.0,4.0,79,0.00,,,0.02,,2013-03-27 11:02:00,
2013-03-27 06:12:00,31.0,25.0,30.37,WNW,292,1.0,4.0,79,0.00,,,0.02,,2013-03-27 11:12:00,
2013-03-27 06:22:00,30.0,25.0,30.37,WNW,292,0.0,4.0,80,0.00,,,0.02,,2013-03-27 11:22:00,
2013-03-27 06:32:00,30.0,25.0,30.37,WNW,292,0.0,1.0,80,0.00,,,0.02,,2013-03-27 11:32:00,
2013-03-27 06:42:00,30.0,25.0,30.37,WNW,292,0.0,1.0,80,0.00,,,0.02,,2013-03-27 11:42:00,
2013-03-27 06:52:00,30.0,25.0,30.38,WNW,292,0.0,1.0,81,0.00,,,0.02,,2013-03-27 11:52:00,
2013-03-27 07:23:00,-999.0,-99.9,30.39,WNW,292,0.0,0.0,-999,0.00,,,0.02,,2013-03-27 12:23:00,
2013-03-27 07:32:00,29.0,25.0,30.39,WNW,292,0.0,1.0,84,0.00,,,0.02,,2013-03-27 12:32:00,
2013-03-27 07:43:00,29.0,25.0,30.39,WNW,292,0.0,1.0,84,0.00,,,0.02,,2013-03-27 12:43:00,
2013-03-27 07:52:00,30.0,25.0,30.40,West,265,0.0,2.0,83,0.00,,,0.02,,2013-03-27 12:52:00,
2013-03-27 08:02:00,30.0,25.0,30.41,WNW,285,1.0,5.0,82,0.00,,,0.02,,2013-03-27 13:02:00,
2013-03-27 08:12:00,30.0,25.0,30.41,WNW,285,1.0,5.0,82,0.00,,,0.02,,2013-03-27 13:12:00,
2013-03-27 08:22:00,31.0,26.0,30.40,WNW,295,1.0,5.0,80,0.00,,,0.02,,2013-03-27 13:22:00,
2013-03-27 08:32:00,32.0,26.0,30.41,WNW,285,3.0,6.0,78,0.00,,,0.02,,2013-03-27 13:32:00,
2013-03-27 08:42:00,32.0,26.0,30.41,WNW,285,3.0,6.0,78,0.00,,,0.02,,2013-03-27 13:42:00,
2013-03-27 08:52:00,33.0,27.0,30.41,NW,306,2.0,8.0,77,0.00,,,0.02,,2013-03-27 13:52:00,
2013-03-27 09:02:00,34.0,27.0,30.41,WNW,295,2.0,8.0,74,0.00,,,0.02,,2013-03-27 14:02:00,
2013-03-27 09:12:00,34.0,27.0,30.41,WNW,295,2.0,8.0,74,0.00,,,0.02,,2013-03-27 14:12:00,
2013-03-27 09:22:00,34.0,27.0,30.42,NW,323,3.0,8.0,74,0.00,,,0.02,,2013-03-27 14:22:00,
2013-03-27 09:32:00,35.0,27.0,30.42,WNW,298,4.0,10.0,72,0.00,,,0.02,,2013-03-27 14:32:00,
2013-03-27 09:42:00,35.0,27.0,30.42,WNW,298,4.0,10.0,72,0.00,,,0.02,,2013-03-27 14:42:00,
2013-03-27 09:52:00,37.0,28.0,30.42,NW,322,5.0,10.0,70,0.00,,,0.02,,2013-03-27 14:52:00,
2013-03-27 10:02:00,38.0,28.0,30.41,NW,321,6.0,10.0,68,0.00,,,0.02,,2013-03-27 15:02:00,
2013-03-27 10:12:00,38.0,28.0,30.41,NW,321,6.0,10.0,68,0.00,,,0.02,,2013-03-27 15:12:00,
2013-03-27 10:22:00,39.0,28.0,30.41,WNW,288,4.0,9.0,64,0.00,,,0.02,,2013-03-27 15:22:00,
2013-03-27 10:33:00,39.0,27.0,30.42,NNW,337,6.0,11.0,63,0.00,,,0.02,,2013-03-27 15:33:00,
2013-03-27 10:42:00,39.0,27.0,30.42,NNW,337,6.0,11.0,63,0.00,,,0.02,,2013-03-27 15:42:00,
2013-03-27 10:52:00,40.0,28.0,30.42,NNW,329,6.0,10.0,62,0.00,,,0.02,,2013-03-27 15:52:00,
2013-03-27 11:02:00,40.0,27.0,30.42,NW,311,3.0,9.0,59,0.00,,,0.01,,2013-03-27 16:02:00,
2013-03-27 11:13:00,40.0,27.0,30.42,NW,311,3.0,9.0,59,0.00,,,0.01,,2013-03-27 16:13:00,
2013-03-27 11:22:00,40.0,24.0,30.41,West,275,5.0,10.0,53,0.00,,,0.01,,2013-03-27 16:22:00,
2013-03-27 11:32:00,40.0,25.0,30.42,WNW,288,5.0,11.0,55,0.00,,,0.01,,2013-03-27 16:32:00,
2013-03-27 11:42:00,40.0,25.0,30.42,WNW,288,5.0,11.0,55,0.00,,,0.01,,2013-03-27 16:42:00,
2013-03-27 11:52:00,40.0,26.0,30.42,North,360,4.0,10.0,56,0.00,,,0.01,,2013-03-27 16:52:00,
2013-03-27 12:03:00,40.0,25.0,30.43,NW,326,3.0,9.0,55,0.00,,,0.00,,2013-03-27 17:03:00,
2013-03-27 12:12:00,40.0,25.0,30.43,NW,326,3.0,9.0,55,0.00,,,0.00,,2013-03-27 17:12:00,
2013-03-27 12:22:00,40.0,25.0,30.42,WNW,295,8.0,12.0,55,0.00,,,0.00,,2013-03-27 17:22:00,
2013-03-27 12:32:00,41.0,27.0,30.42,NW,325,4.0,11.0,58,0.00,,,0.00,,2013-03-27 17:32:00,
2013-03-27 12:44:00,41.0,27.0,30.42,NW,325,4.0,11.0,58,0.00,,,0.00,,2013-03-27 17:44:00,
2013-03-27 12:52:00,41.0,27.0,30.42,WNW,288,6.0,11.0,56,0.00,,,0.00,,2013-03-27 17:52:00,
2013-03-27 13:02:00,42.0,27.0,30.42,WNW,299,2.0,9.0,55,0.00,,,0.00,,2013-03-27 18:02:00,
2013-03-27 13:12:00,42.0,27.0,30.42,WNW,299,2.0,9.0,55,0.00,,,0.00,,2013-03-27 18:12:00,
2013-03-27 13:22:00,42.0,30.0,30.42,WSW,246,6.0,12.0,61,0.00,,,0.00,,2013-03-27 18:22:00,
2013-03-27 13:32:00,43.0,29.0,30.42,North,355,7.0,13.0,57,0.00,,,0.00,,2013-03-27 18:32:00,
2013-03-27 13:42:00,43.0,29.0,30.42,North,355,7.0,13.0,57,0.00,,,0.00,,2013-03-27 18:42:00,
2013-03-27 13:52:00,42.0,28.0,30.41,WNW,292,5.0,12.0,58,0.00,,,0.00,,2013-03-27 18:52:00,
2013-03-27 14:02:00,42.0,26.0,30.40,NNW,328,4.0,9.0,53,0.00,,,0.00,,2013-03-27 19:02:00,
2013-03-27 14:12:00,42.0,26.0,30.40,NNW,328,4.0,9.0,53,0.00,,,0.00,,2013-03-27 19:12:00,
2013-03-27 14:22:00,44.0,29.0,30.40,NW,314,3.0,10.0,55,0.00,,,0.00,,2013-03-27 19:22:00,
2013-03-27 14:32:00,43.0,27.0,30.40,NW,316,4.0,7.0,53,0.00,,,0.00,,2013-03-27 19:32:00,
2013-03-27 14:42:00,43.0,27.0,30.40,NW,316,4.0,7.0,53,0.00,,,0.00,,2013-03-27 19:42:00,
2013-03-27 14:52:00,43.0,28.0,30.39,West,280,3.0,11.0,54,0.00,,,0.00,,2013-03-27 19:52:00,
2013-03-27 15:02:00,44.0,29.0,30.39,WNW,303,6.0,13.0,55,0.00,,,0.00,,2013-03-27 20:02:00,
2013-03-27 15:12:00,44.0,29.0,30.39,WNW,303,6.0,13.0,55,0.00,,,0.00,,2013-03-27 20:12:00,
2013-03-27 15:22:00,43.0,29.0,30.38,NW,314,3.0,9.0,57,0.00,,,0.00,,2013-03-27 20:22:00,
2013-03-27 15:32:00,44.0,28.0,30.38,NW,311,5.0,11.0,53,0.00,,,0.00,,2013-03-27 20:32:00,
2013-03-27 15:42:00,44.0,28.0,30.38,NW,311,5.0,11.0,53,0.00,,,0.00,,2013-03-27 20:42:00,
2013-03-27 15:52:00,45.0,28.0,30.38,WNW,291,6.0,10.0,52,0.00,,,0.00,,2013-03-27 20:52:00,
2013-03-27 16:02:00,46.0,30.0,30.37,NW,317,5.0,11.0,53,0.00,,,0.00,,2013-03-27 21:02:00,
2013-03-27 16:12:00,46.0,30.0,30.37,NW,317,5.0,11.0,53,0.00,,,0.00,,2013-03-27 21:12:00,
2013-03-27 16:22:00,45.0,29.0,30.37,NNW,336,5.0,9.0,53,0.00,,,0.00,,2013-03-27 21:22:00,
2013-03-27 16:32:00,44.0,28.0,30.37,NE,36,1.0,10.0,53,0.00,,,0.00,,2013-03-27 21:32:00,
2013-03-27 16:43:00,44.0,28.0,30.37,NE,36,1.0,10.0,53,0.00,,,0.00,,2013-03-27 21:43:00,
2013-03-27 16:52:00,45.0,30.0,30.36,North,5,6.0,10.0,55,0.00,,,0.00,,2013-03-27 21:52:00,
2013-03-27 17:03:00,45.0,27.0,30.36,WNW,295,6.0,10.0,50,0.00,,,0.00,,2013-03-27 22:03:00,
2013-03-27 17:12:00,45.0,27.0,30.36,WNW,295,6.0,10.0,50,0.00,,,0.00,,2013-03-27 22:12:00,
2013-03-27 17:23:00,45.0,28.0,30.36,NNW,344,4.0,8.0,52,0.00,,,0.00,,2013-03-27 22:23:00,
2013-03-27 17:33:00,45.0,28.0,30.36,NW,305,5.0,10.0,51,0.00,,,0.00,,2013-03-27 22:33:00,
2013-03-27 17:42:00,45.0,28.0,30.36,NW,305,5.0,10.0,51,0.00,,,0.00,,2013-03-27 22:42:00,
2013-03-27 17:52:00,45.0,29.0,30.36,West,263,3.0,9.0,53,0.00,,,0.00,,2013-03-27 22:52:00,
2013-03-27 18:02:00,45.0,29.0,30.36,NNE,19,2.0,7.0,53,0.00,,,0.00,,2013-03-27 23:02:00,
2013-03-27 18:12:00,45.0,29.0,30.36,NNE,19,2.0,7.0,53,0.00,,,0.00,,2013-03-27 23:12:00,
2013-03-27 18:22:00,45.0,28.0,30.36,NW,319,3.0,9.0,52,0.00,,,0.00,,2013-03-27 23:22:00,
2013-03-27 18:32:00,44.0,28.0,30.36,North,355,3.0,7.0,52,0.00,,,0.00,,2013-03-27 23:32:00,
2013-03-27 18:42:00,44.0,28.0,30.36,North,355,3.0,7.0,52,0.00,,,0.00,,2013-03-27 23:42:00,
2013-03-27 18:52:00,43.0,28.0,30.36,NW,319,2.0,7.0,55,0.00,,,0.00,,2013-03-27 23:52:00,
2013-03-27 19:02:00,42.0,28.0,30.36,NNW,331,1.0,6.0,58,0.00,,,0.00,,2013-03-28 00:02:00,
2013-03-27 19:12:00,42.0,28.0,30.36,NNW,331,1.0,6.0,58,0.00,,,0.00,,2013-03-28 00:12:00,
2013-03-27 19:22:00,42.0,28.0,30.36,NNW,331,1.0,6.0,58,0.00,,,0.00,,2013-03-28 00:22:00,
2013-03-27 19:32:00,40.0,28.0,30.36,NNW,342,2.0,5.0,63,0.00,,,0.00,,2013-03-28 00:32:00,
2013-03-27 19:42:00,40.0,28.0,30.36,NNW,342,2.0,5.0,63,0.00,,,0.00,,2013-03-28 00:42:00,
2013-03-27 19:52:00,39.0,28.0,30.36,NNW,342,1.0,3.0,65,0.00,,,0.00,,2013-03-28 00:52:00,
2013-03-27 20:02:00,38.0,28.0,30.36,NNW,342,0.0,4.0,66,0.00,,,0.00,,2013-03-28 01:02:00,
2013-03-27 20:12:00,38.0,28.0,30.36,NNW,342,0.0,4.0,66,0.00,,,0.00,,2013-03-28 01:12:00,
2013-03-27 20:22:00,37.0,29.0,30.36,NNE,13,2.0,4.0,72,0.00,,,0.00,,2013-03-28 01:22:00,
2013-03-27 20:32:00,37.0,28.0,30.37,North,5,1.0,4.0,71,0.00,,,0.00,,2013-03-28 01:32:00,
2013-03-27 20:42:00,37.0,28.0,30.37,North,5,1.0,4.0,71,0.00,,,0.00,,2013-03-28 01:42:00,
2013-03-27 20:52:00,37.0,28.0,30.37,North,5,1.0,2.0,70,0.00,,,0.00,,2013-03-28 01:52:00,
2013-03-27 21:02:00,36.0,28.0,30.37,North,5,2.0,5.0,71,0.00,,,0.00,,2013-03-28 02:02:00,
2013-03-27 21:12:00,36.0,28.0,30.37,North,5,2.0,5.0,71,0.00,,,0.00,,2013-03-28 02:12:00,
2013-03-27 21:22:00,35.0,27.0,30.37,North,5,2.0,5.0,73,0.00,,,0.00,,2013-03-28 02:22:00,
2013-03-27 21:32:00,35.0,27.0,30.37,NNE,15,3.0,5.0,73,0.00,,,0.00,,2013-03-28 02:32:00,
2013-03-27 21:42:00,35.0,27.0,30.37,NNE,15,3.0,5.0,73,0.00,,,0.00,,2013-03-28 02:42:00,
2013-03-27 21:52:00,35.0,27.0,30.37,NNE,15,3.0,5.0,73,0.00,,,0.00,,2013-03-28 02:52:00,
2013-03-27 22:02:00,34.0,27.0,30.38,NNE,26,2.0,5.0,75,0.00,,,0.00,,2013-03-28 03:02:00,
2013-03-27 22:12:00,34.0,27.0,30.38,NNE,26,2.0,5.0,75,0.00,,,0.00,,2013-03-28 03:12:00,
2013-03-27 22:22:00,33.0,26.0,30.38,NNE,26,3.0,4.0,76,0.00,,,0.00,,2013-03-28 03:22:00,
2013-03-27 22:33:00,33.0,26.0,30.37,NNE,26,2.0,5.0,76,0.00,,,0.00,,2013-03-28 03:33:00,
2013-03-27 22:43:00,33.0,26.0,30.37,NNE,26,2.0,5.0,76,0.00,,,0.00,,2013-03-28 03:43:00,
2013-03-27 22:52:00,32.0,25.0,30.37,NNE,26,2.0,4.0,76,0.00,,,0.00,,2013-03-28 03:52:00,
2013-03-27 23:02:00,32.0,25.0,30.37,NNE,26,2.0,3.0,76,0.00,,,0.00,,2013-03-28 04:02:00,
2013-03-27 23:12:00,32.0,25.0,30.37,NNE,26,2.0,3.0,76,0.00,,,0.00,,2013-03-28 04:12:00,
2013-03-27 23:23:00,32.0,25.0,30.37,NNE,26,2.0,3.0,76,0.00,,,0.00,,2013-03-28 04:23:00,
2013-03-27 23:32:00,32.0,25.0,30.37,NNE,26,3.0,5.0,75,0.00,,,0.00,,2013-03-28 04:32:00,
2013-03-27 23:42:00,32.0,25.0,30.37,NNE,26,3.0,5.0,75,0.00,,,0.00,,2013-03-28 04:42:00,
2013-03-27 23:52:00,31.0,24.0,30.38,NNE,26,2.0,4.0,76,0.00,,,0.00,,2013-03-28 04:52:00,